Southern Tiare — E5U2082 — position and weather

sailwx.info

Track history (hours):
 
Tides and Currents Weather Stations Pressure Air Temp Water Temp Dewpoint Dewpoint Depression Visibility Wind Speed Wind Dir Waves Ship Positions

Southern Tiare

Last reported at 2015-Mar-20 04:33 UTC. Time now 2015-Mar-28 12:24 UTC.
Position S 36°18' E 174°56'.
Warning: this ship's position is 8 days out of date.

Length 67 m; draft 3.3 m.

Type: Cargo ship. MMSI: 518132000.

Date/timePositionNaut miles runAvg speedWind from/ knotsBaromVisibWave heightAir tempDewpointWater temp
2015-Mar-20 04:33S 36°18' E 174°56'9 9.0
2015-Mar-20 03:33S 36°27' E 174°57'11 9.3
2015-Mar-20 02:25S 36°37' E 174°57'8 8.9
2015-Mar-20 01:33S 36°43' E 174°51'8 0.3
2015-Mar-19 00:23S 36°51' E 174°47'0 0.0
2015-Mar-18 23:32S 36°51' E 174°47'0 0.0
2015-Mar-18 20:32S 36°51' E 174°47'0 0.0
2015-Mar-18 19:32S 36°51' E 174°47'0 0.0
2015-Mar-18 18:32S 36°51' E 174°47'0 0.0
2015-Mar-18 17:32S 36°51' E 174°47'0 0.0
2015-Mar-18 16:32S 36°51' E 174°47'0 0.0
2015-Mar-18 15:32S 36°51' E 174°47'0 0.0
2015-Mar-18 10:32S 36°51' E 174°47'0 0.0
2015-Mar-18 09:32S 36°51' E 174°47'0 0.0
2015-Mar-18 08:32S 36°51' E 174°47'0 0.0
2015-Mar-18 07:11S 36°51' E 174°47'0 0.0
2015-Mar-18 06:11S 36°51' E 174°47'0 0.0
2015-Mar-17 18:32S 36°51' E 174°47'0 0.0
2015-Mar-17 04:33S 36°51' E 174°47'5 5.3
2015-Mar-17 03:33S 36°46' E 174°49'9 9.4
2015-Mar-17 02:33S 36°39' E 174°58'  
Track history (hours):
 
Tides and Currents Weather Stations Pressure Air Temp Water Temp Dewpoint Dewpoint Depression Visibility Wind Speed Wind Dir Waves Ship Positions

Southern Tiare

Last reported at 2015-Mar-20 04:33 UTC. Time now 2015-Mar-28 12:24 UTC.
Position S 36°18' E 174°56'.
Warning: this ship's position is 8 days out of date.

Length 67 m; draft 3.3 m.

Type: Cargo ship. MMSI: 518132000.

Date/timePositionNaut miles runAvg speedWind from/ knotsBaromVisibWave heightAir tempDewpointWater temp
2015-Mar-20 04:33S 36°18' E 174°56'9 9.0
2015-Mar-20 03:33S 36°27' E 174°57'11 9.3
2015-Mar-20 02:25S 36°37' E 174°57'8 8.9
2015-Mar-20 01:33S 36°43' E 174°51'8 0.3
2015-Mar-19 00:23S 36°51' E 174°47'0 0.0
2015-Mar-18 23:32S 36°51' E 174°47'0 0.0
2015-Mar-18 20:32S 36°51' E 174°47'0 0.0
2015-Mar-18 19:32S 36°51' E 174°47'0 0.0
2015-Mar-18 18:32S 36°51' E 174°47'0 0.0
2015-Mar-18 17:32S 36°51' E 174°47'0 0.0
2015-Mar-18 16:32S 36°51' E 174°47'0 0.0
2015-Mar-18 15:32S 36°51' E 174°47'0 0.0
2015-Mar-18 10:32S 36°51' E 174°47'0 0.0
2015-Mar-18 09:32S 36°51' E 174°47'0 0.0
2015-Mar-18 08:32S 36°51' E 174°47'0 0.0
2015-Mar-18 07:11S 36°51' E 174°47'0 0.0
2015-Mar-18 06:11S 36°51' E 174°47'0 0.0
2015-Mar-17 18:32S 36°51' E 174°47'0 0.0
2015-Mar-17 04:33S 36°51' E 174°47'5 5.3
2015-Mar-17 03:33S 36°46' E 174°49'9 9.4
2015-Mar-17 02:33S 36°39' E 174°58'  

Dump ship's entire track history